Athens, Pennsylvania
Current Conditions -  °F | °C
As of 3:53 AM on Sunday 21 Dec 2014 (Local Time) from KELM Reporting Station
Overcast Overcast  
Wind Chill: -2°   Ceiling: 2400
Heat Index: -2°   Visibility: 10mi
Dew Point: -6°   Wind: 0mph
Humidity: 72%   Direction: NA
Pressure: 30.26"   Gusts: NA
Location:  41.96°N, 76.52°W
Report Text: KELM 210853Z AUTO 00000KT 10SM OVC024 M02/M06 A3026 RMK AO2 SLP259 T10171061 51005
Loading
Personal Weather Stations






























Interactive Weather Map New forecast layout! Learn more

10-Day Weather Forecast

Advertisements
Track Severe Weather on mobile